Portada
METAR-TAF:

METAR-TAF

Aeropuertos :

Cuneo, Italia

latitud: 44-32-47N, longitud: 007-37-20E, altitud: 386 m

Observación

El informe se hizo hace 8 horas y 1 minutos, a las 18:50 UTC
Viento 1 kt con dirección variable
Temperatura 19°C
Humedad 64%
Presión 1015 hPa
Visibilidad 10 km o más
sin nubes por debajo de 1500 m y sin presencia de cumulonimbus.

METAR: LIMZ 311850Z VRB01KT CAVOK 19/12 Q1015

Hora: 04:51 (02:51 UTC)

Pronóstico

El informe se hizo hace 9 horas y 51 minutos, a las 17:00 UTC
Pronóstico válido del 31 a las 18 UTC al 01 a las 18 UTC
Viento 5 kt con dirección variable
Visibilidad: 8000 m
Cielo nuboso a una altura de 4000 ft
Temporalmente
del 01 a las 10 UTC al 01 a las 18 UTC
chaparrones de lluvia

TAF: LIMZ 311700Z 3118/0118 VRB05KT 8000 BKN040 TEMPO 0110/0118 SHRA

Observaciones y pronósticos meteorológicos de más de 4000 aeropuertos (mensajes METAR y TAF).

Los puntos amarillos y rojos representan las estaciones disponibles.

Ponga el ratón en el punto deseado para ver el nombre de la estación.

Haga clic para ver las observaciones y los pronósticos meteorológicos.

Para cambiar el mapa : haga clic en los botones verdes con una cruz de color negro para hacer un zoom, en el botón verde con un guión para alejar o en las flechas verdes para mapas adyacentes.


METAR-TAF: